sensor_id;sensor_type;location;lat;lon;timestamp;pressure;altitude;pressure_sealevel;temperature;humidity
71476;BME280;59286;59.274;17.974;2023-02-13T00:01:54;101940.69;;;1.76;94.73
71476;BME280;59286;59.274;17.974;2023-02-13T00:04:19;101958.16;;;1.87;95.40
71476;BME280;59286;59.274;17.974;2023-02-13T00:06:45;101954.56;;;1.88;95.15
71476;BME280;59286;59.274;17.974;2023-02-13T00:09:12;101936.69;;;1.80;94.91
71476;BME280;59286;59.274;17.974;2023-02-13T00:11:37;101939.06;;;1.82;94.98
71476;BME280;59286;59.274;17.974;2023-02-13T00:14:03;101936.91;;;1.79;95.23
71476;BME280;59286;59.274;17.974;2023-02-13T00:16:28;101952.97;;;1.87;94.82
71476;BME280;59286;59.274;17.974;2023-02-13T00:18:53;101937.88;;;1.84;94.93
71476;BME280;59286;59.274;17.974;2023-02-13T00:21:19;101922.22;;;1.73;94.81
71476;BME280;59286;59.274;17.974;2023-02-13T00:23:44;101961.91;;;1.91;95.26
71476;BME280;59286;59.274;17.974;2023-02-13T00:26:12;101962.72;;;1.92;94.77
71476;BME280;59286;59.274;17.974;2023-02-13T00:28:38;101957.56;;;1.85;94.79
71476;BME280;59286;59.274;17.974;2023-02-13T00:31:09;101960.53;;;1.89;95.24
71476;BME280;59286;59.274;17.974;2023-02-13T00:33:35;101950.97;;;1.89;94.83
71476;BME280;59286;59.274;17.974;2023-02-13T00:36:06;101953.41;;;1.84;94.59
71476;BME280;59286;59.274;17.974;2023-02-13T00:38:32;101949.97;;;1.90;95.28
71476;BME280;59286;59.274;17.974;2023-02-13T00:40:58;101940.66;;;1.83;95.16
71476;BME280;59286;59.274;17.974;2023-02-13T00:43:23;101941.06;;;1.86;95.00
71476;BME280;59286;59.274;17.974;2023-02-13T00:45:49;101943.44;;;1.88;95.33
71476;BME280;59286;59.274;17.974;2023-02-13T00:48:14;101936.28;;;1.90;95.30
71476;BME280;59286;59.274;17.974;2023-02-13T00:50:39;101920.78;;;1.83;94.98
71476;BME280;59286;59.274;17.974;2023-02-13T00:53:05;101931.09;;;1.90;95.10
71476;BME280;59286;59.274;17.974;2023-02-13T00:55:30;101929.72;;;1.87;95.13
71476;BME280;59286;59.274;17.974;2023-02-13T00:57:55;101932.47;;;1.92;94.88
71476;BME280;59286;59.274;17.974;2023-02-13T01:00:21;101924.53;;;1.87;94.60
71476;BME280;59286;59.274;17.974;2023-02-13T01:02:46;101919.97;;;1.89;94.98
71476;BME280;59286;59.274;17.974;2023-02-13T01:05:12;101924.38;;;1.82;94.50
71476;BME280;59286;59.274;17.974;2023-02-13T01:07:37;101901.31;;;1.74;95.01
71476;BME280;59286;59.274;17.974;2023-02-13T01:10:03;101914.03;;;1.82;94.91
71476;BME280;59286;59.274;17.974;2023-02-13T01:12:28;101909.25;;;1.79;94.68
71476;BME280;59286;59.274;17.974;2023-02-13T01:14:53;101916.63;;;1.82;95.10
71476;BME280;59286;59.274;17.974;2023-02-13T01:17:20;101915.00;;;1.81;94.72
71476;BME280;59286;59.274;17.974;2023-02-13T01:19:45;101916.41;;;1.77;95.16
71476;BME280;59286;59.274;17.974;2023-02-13T01:22:10;101914.84;;;1.76;95.20
71476;BME280;59286;59.274;17.974;2023-02-13T01:24:36;101908.06;;;1.75;95.30
71476;BME280;59286;59.274;17.974;2023-02-13T01:27:01;101911.44;;;1.76;94.88
71476;BME280;59286;59.274;17.974;2023-02-13T01:29:27;101911.66;;;1.74;95.14
71476;BME280;59286;59.274;17.974;2023-02-13T01:31:52;101909.28;;;1.66;95.10
71476;BME280;59286;59.274;17.974;2023-02-13T01:34:18;101910.47;;;1.70;95.36
71476;BME280;59286;59.274;17.974;2023-02-13T01:36:43;101912.06;;;1.71;94.86
71476;BME280;59286;59.274;17.974;2023-02-13T01:39:10;101917.25;;;1.71;95.19
71476;BME280;59286;59.274;17.974;2023-02-13T01:41:36;101915.66;;;1.70;95.41
71476;BME280;59286;59.274;17.974;2023-02-13T01:44:03;101915.66;;;1.70;95.76
71476;BME280;59286;59.274;17.974;2023-02-13T01:48:58;101898.56;;;1.69;95.42
71476;BME280;59286;59.274;17.974;2023-02-13T01:51:28;101903.72;;;1.69;95.37
71476;BME280;59286;59.274;17.974;2023-02-13T01:54:03;101887.84;;;1.59;95.28
71476;BME280;59286;59.274;17.974;2023-02-13T01:56:37;101894.59;;;1.73;95.35
71476;BME280;59286;59.274;17.974;2023-02-13T01:59:08;101881.25;;;1.70;95.25
71476;BME280;59286;59.274;17.974;2023-02-13T02:01:36;101883.66;;;1.71;95.28
71476;BME280;59286;59.274;17.974;2023-02-13T02:04:29;101880.28;;;1.71;95.11
71476;BME280;59286;59.274;17.974;2023-02-13T02:06:57;101897.34;;;1.78;94.88
71476;BME280;59286;59.274;17.974;2023-02-13T02:09:29;101894.16;;;1.76;95.16
71476;BME280;59286;59.274;17.974;2023-02-13T02:14:31;101887.00;;;1.72;95.07
71476;BME280;59286;59.274;17.974;2023-02-13T02:16:57;101885.66;;;1.69;95.10
71476;BME280;59286;59.274;17.974;2023-02-13T02:22:18;101901.31;;;1.74;94.81
71476;BME280;59286;59.274;17.974;2023-02-13T02:25:24;101898.75;;;1.74;95.22
71476;BME280;59286;59.274;17.974;2023-02-13T02:39:09;101892.97;;;1.72;94.78
71476;BME280;59286;59.274;17.974;2023-02-13T02:44:31;101903.50;;;1.77;95.36
71476;BME280;59286;59.274;17.974;2023-02-13T02:47:26;101897.53;;;1.77;95.29
71476;BME280;59286;59.274;17.974;2023-02-13T02:50:36;101896.72;;;1.83;94.79
71476;BME280;59286;59.274;17.974;2023-02-13T02:53:57;101900.84;;;1.90;94.56
71476;BME280;59286;59.274;17.974;2023-02-13T02:56:25;101893.31;;;1.89;94.47
71476;BME280;59286;59.274;17.974;2023-02-13T02:59:11;101908.00;;;1.95;94.31
71476;BME280;59286;59.274;17.974;2023-02-13T03:01:57;101905.22;;;1.96;94.58
71476;BME280;59286;59.274;17.974;2023-02-13T03:04:45;101903.66;;;1.95;94.22
71476;BME280;59286;59.274;17.974;2023-02-13T03:07:31;101893.69;;;1.99;94.38
71476;BME280;59286;59.274;17.974;2023-02-13T03:10:00;101897.63;;;2.02;94.06
71476;BME280;59286;59.274;17.974;2023-02-13T03:12:53;101892.88;;;2.05;93.92
71476;BME280;59286;59.274;17.974;2023-02-13T03:15:41;101887.34;;;1.95;93.67
71476;BME280;59286;59.274;17.974;2023-02-13T03:18:26;101884.56;;;1.90;94.21
71476;BME280;59286;59.274;17.974;2023-02-13T03:21:17;101888.72;;;1.98;94.02
71476;BME280;59286;59.274;17.974;2023-02-13T03:24:16;101884.97;;;1.93;94.18
71476;BME280;59286;59.274;17.974;2023-02-13T03:32:33;101881.53;;;1.99;94.33
71476;BME280;59286;59.274;17.974;2023-02-13T03:35:11;101880.16;;;1.97;93.95
71476;BME280;59286;59.274;17.974;2023-02-13T03:38:04;101885.13;;;1.98;93.91
71476;BME280;59286;59.274;17.974;2023-02-13T03:41:03;101888.91;;;1.96;94.21
71476;BME280;59286;59.274;17.974;2023-02-13T03:46:17;101902.47;;;1.91;93.70
71476;BME280;59286;59.274;17.974;2023-02-13T03:48:44;101893.31;;;1.89;93.52
71476;BME280;59286;59.274;17.974;2023-02-13T03:51:33;101896.91;;;1.88;94.04
71476;BME280;59286;59.274;17.974;2023-02-13T03:54:03;101884.00;;;1.81;93.82
71476;BME280;59286;59.274;17.974;2023-02-13T03:56:33;101882.63;;;1.79;93.88
71476;BME280;59286;59.274;17.974;2023-02-13T03:59:25;101878.66;;;1.76;94.35
71476;BME280;59286;59.274;17.974;2023-02-13T04:02:15;101876.06;;;1.76;94.35
71476;BME280;59286;59.274;17.974;2023-02-13T04:05:46;101877.66;;;1.77;95.11
71476;BME280;59286;59.274;17.974;2023-02-13T04:07:39;101861.00;;;1.73;94.82
71476;BME280;59286;59.274;17.974;2023-02-13T04:10:08;101866.53;;;1.77;94.53
71476;BME280;59286;59.274;17.974;2023-02-13T04:12:39;101864.34;;;1.74;94.37
71476;BME280;59286;59.274;17.974;2023-02-13T04:15:17;101871.50;;;1.78;94.52
71476;BME280;59286;59.274;17.974;2023-02-13T04:17:48;101865.91;;;1.81;94.21
71476;BME280;59286;59.274;17.974;2023-02-13T04:20:15;101861.53;;;1.82;94.49
71476;BME280;59286;59.274;17.974;2023-02-13T04:22:43;101863.91;;;1.83;94.21
71476;BME280;59286;59.274;17.974;2023-02-13T04:25:10;101865.50;;;1.84;94.04
71476;BME280;59286;59.274;17.974;2023-02-13T04:27:36;101865.50;;;1.84;94.47
71476;BME280;59286;59.274;17.974;2023-02-13T04:30:01;101870.09;;;1.82;94.31
71476;BME280;59286;59.274;17.974;2023-02-13T04:32:26;101865.09;;;1.87;93.75
71476;BME280;59286;59.274;17.974;2023-02-13T04:34:53;101838.16;;;1.64;93.80
71476;BME280;59286;59.274;17.974;2023-02-13T04:37:18;101873.22;;;1.91;93.87
71476;BME280;59286;59.274;17.974;2023-02-13T04:39:43;101879.19;;;1.91;93.80
71476;BME280;59286;59.274;17.974;2023-02-13T04:42:09;101873.84;;;1.86;93.46
71476;BME280;59286;59.274;17.974;2023-02-13T04:44:34;101874.25;;;1.90;93.59
71476;BME280;59286;59.274;17.974;2023-02-13T04:46:59;101867.09;;;1.85;93.51
71476;BME280;59286;59.274;17.974;2023-02-13T04:49:24;101863.91;;;1.90;93.73
71476;BME280;59286;59.274;17.974;2023-02-13T04:51:50;101868.28;;;1.89;93.68
71476;BME280;59286;59.274;17.974;2023-02-13T04:54:15;101847.47;;;1.71;93.67
71476;BME280;59286;59.274;17.974;2023-02-13T04:56:40;101850.84;;;1.72;93.84
71476;BME280;59286;59.274;17.974;2023-02-13T04:59:06;101874.03;;;1.85;94.10
71476;BME280;59286;59.274;17.974;2023-02-13T05:01:31;101872.25;;;1.85;93.96
71476;BME280;59286;59.274;17.974;2023-02-13T05:03:56;101867.13;;;1.79;94.10
71476;BME280;59286;59.274;17.974;2023-02-13T05:06:22;101872.69;;;1.82;93.77
71476;BME280;59286;59.274;17.974;2023-02-13T05:08:47;101861.97;;;1.79;93.90
71476;BME280;59286;59.274;17.974;2023-02-13T05:11:12;101868.50;;;1.81;93.92
71476;BME280;59286;59.274;17.974;2023-02-13T05:13:37;101846.50;;;1.66;93.81
71476;BME280;59286;59.274;17.974;2023-02-13T05:16:03;101869.50;;;1.80;93.72
71476;BME280;59286;59.274;17.974;2023-02-13T05:18:28;101875.63;;;1.86;94.17
71476;BME280;59286;59.274;17.974;2023-02-13T05:20:54;101876.03;;;1.83;94.06
71476;BME280;59286;59.274;17.974;2023-02-13T05:23:38;101874.66;;;1.80;94.40
71476;BME280;59286;59.274;17.974;2023-02-13T05:26:03;101862.72;;;1.79;93.97
71476;BME280;59286;59.274;17.974;2023-02-13T05:28:28;101862.34;;;1.82;94.04
71476;BME280;59286;59.274;17.974;2023-02-13T05:31:12;101862.72;;;1.79;94.03
71476;BME280;59286;59.274;17.974;2023-02-13T05:33:38;101876.84;;;1.83;94.28
71476;BME280;59286;59.274;17.974;2023-02-13T05:36:03;101884.00;;;1.88;94.07
71476;BME280;59286;59.274;17.974;2023-02-13T05:38:29;101873.84;;;1.86;94.38
71476;BME280;59286;59.274;17.974;2023-02-13T05:40:57;101880.59;;;1.87;94.23
71476;BME280;59286;59.274;17.974;2023-02-13T05:43:23;101883.41;;;1.86;94.09
71476;BME280;59286;59.274;17.974;2023-02-13T05:45:48;101891.94;;;1.86;93.76
71476;BME280;59286;59.274;17.974;2023-02-13T05:48:13;101892.16;;;1.78;93.78
71476;BME280;59286;59.274;17.974;2023-02-13T05:50:39;101898.91;;;1.79;94.38
71476;BME280;59286;59.274;17.974;2023-02-13T05:53:04;101893.78;;;1.73;94.48
71476;BME280;59286;59.274;17.974;2023-02-13T05:55:29;101905.25;;;1.83;94.22
71476;BME280;59286;59.274;17.974;2023-02-13T05:57:56;101900.91;;;1.84;94.00
71476;BME280;59286;59.274;17.974;2023-02-13T06:00:22;101907.69;;;1.78;94.33
71476;BME280;59286;59.274;17.974;2023-02-13T06:02:47;101913.66;;;1.72;94.40
71476;BME280;59286;59.274;17.974;2023-02-13T06:05:12;101918.44;;;1.69;93.93
71476;BME280;59286;59.274;17.974;2023-02-13T06:07:38;101930.94;;;1.72;94.33
71476;BME280;59286;59.274;17.974;2023-02-13T06:10:03;101935.13;;;1.66;94.58
71476;BME280;59286;59.274;17.974;2023-02-13T06:12:29;101932.94;;;1.70;94.40
71476;BME280;59286;59.274;17.974;2023-02-13T06:14:54;101925.19;;;1.70;94.61
71476;BME280;59286;59.274;17.974;2023-02-13T06:17:19;101933.13;;;1.68;94.39
71476;BME280;59286;59.274;17.974;2023-02-13T06:19:45;101930.78;;;1.60;94.48
71476;BME280;59286;59.274;17.974;2023-02-13T06:22:10;101949.84;;;1.66;94.20
71476;BME280;59286;59.274;17.974;2023-02-13T06:24:35;101956.03;;;1.58;95.45
71476;BME280;59286;59.274;17.974;2023-02-13T06:27:01;101964.94;;;1.62;95.03
71476;BME280;59286;59.274;17.974;2023-02-13T06:29:26;101972.53;;;1.64;94.60
71476;BME280;59286;59.274;17.974;2023-02-13T06:31:51;101978.84;;;1.68;94.76
71476;BME280;59286;59.274;17.974;2023-02-13T06:34:16;101976.88;;;1.63;94.58
71476;BME280;59286;59.274;17.974;2023-02-13T06:36:42;101971.91;;;1.68;95.05
71476;BME280;59286;59.274;17.974;2023-02-13T06:39:08;101954.81;;;1.61;95.07
71476;BME280;59286;59.274;17.974;2023-02-13T06:41:34;101953.44;;;1.58;95.38
71476;BME280;59286;59.274;17.974;2023-02-13T06:43:59;101946.69;;;1.57;95.33
71476;BME280;59286;59.274;17.974;2023-02-13T06:46:24;101944.31;;;1.56;94.97
71476;BME280;59286;59.274;17.974;2023-02-13T06:48:50;101948.88;;;1.54;95.25
71476;BME280;59286;59.274;17.974;2023-02-13T06:51:15;101951.47;;;1.47;95.34
71476;BME280;59286;59.274;17.974;2023-02-13T06:53:40;101951.06;;;1.50;95.38
71476;BME280;59286;59.274;17.974;2023-02-13T06:56:06;101943.31;;;1.50;95.44
71476;BME280;59286;59.274;17.974;2023-02-13T06:58:32;101942.31;;;1.51;96.07
71476;BME280;59286;59.274;17.974;2023-02-13T07:00:58;101944.28;;;1.49;95.81
71476;BME280;59286;59.274;17.974;2023-02-13T07:03:23;101951.06;;;1.50;95.68
71476;BME280;59286;59.274;17.974;2023-02-13T07:05:49;101954.47;;;1.51;95.78
71476;BME280;59286;59.274;17.974;2023-02-13T07:08:16;101967.38;;;1.51;95.86
71476;BME280;59286;59.274;17.974;2023-02-13T07:10:42;101961.41;;;1.50;95.76
71476;BME280;59286;59.274;17.974;2023-02-13T07:13:08;101960.41;;;1.51;95.84
71476;BME280;59286;59.274;17.974;2023-02-13T07:15:34;101958.00;;;1.50;95.71
71476;BME280;59286;59.274;17.974;2023-02-13T07:18:00;101959.41;;;1.52;95.63
71476;BME280;59286;59.274;17.974;2023-02-13T07:20:26;101954.84;;;1.54;95.90
71476;BME280;59286;59.274;17.974;2023-02-13T07:22:52;101948.28;;;1.52;96.22
71476;BME280;59286;59.274;17.974;2023-02-13T07:25:17;101947.28;;;1.59;95.66
71476;BME280;59286;59.274;17.974;2023-02-13T07:27:43;101944.31;;;1.56;95.59
71476;BME280;59286;59.274;17.974;2023-02-13T07:30:09;101947.47;;;1.58;95.49
71476;BME280;59286;59.274;17.974;2023-02-13T07:32:34;101939.53;;;1.59;94.89
71476;BME280;59286;59.274;17.974;2023-02-13T07:35:00;101935.97;;;1.60;95.08
71476;BME280;59286;59.274;17.974;2023-02-13T07:37:26;101955.81;;;1.60;94.91
71476;BME280;59286;59.274;17.974;2023-02-13T07:39:52;101958.59;;;1.65;94.77
71476;BME280;59286;59.274;17.974;2023-02-13T07:42:17;101959.38;;;1.72;94.67
71476;BME280;59286;59.274;17.974;2023-02-13T07:44:43;101951.00;;;1.83;94.37
71476;BME280;59286;59.274;17.974;2023-02-13T07:47:08;101941.25;;;1.91;94.36
71476;BME280;59286;59.274;17.974;2023-02-13T07:49:34;101956.88;;;2.10;93.92
71476;BME280;59286;59.274;17.974;2023-02-13T07:52:01;101956.22;;;2.21;93.29
71476;BME280;59286;59.274;17.974;2023-02-13T07:54:26;101942.88;;;2.30;92.58
71476;BME280;59286;59.274;17.974;2023-02-13T07:56:52;101949.16;;;2.41;92.79
71476;BME280;59286;59.274;17.974;2023-02-13T07:59:17;101946.34;;;2.49;91.87
71476;BME280;59286;59.274;17.974;2023-02-13T08:01:42;101933.56;;;2.54;91.70
71476;BME280;59286;59.274;17.974;2023-02-13T08:04:07;101936.94;;;2.61;91.10
71476;BME280;59286;59.274;17.974;2023-02-13T08:06:33;101960.97;;;2.68;90.97
71476;BME280;59286;59.274;17.974;2023-02-13T08:08:58;101956.56;;;2.75;90.31
71476;BME280;59286;59.274;17.974;2023-02-13T08:11:42;101964.84;;;2.83;90.05
71476;BME280;59286;59.274;17.974;2023-02-13T08:14:24;101975.91;;;2.97;89.86
71476;BME280;59286;59.274;17.974;2023-02-13T08:16:50;101981.28;;;3.02;88.89
71476;BME280;59286;59.274;17.974;2023-02-13T08:19:16;101985.00;;;3.06;88.77
71476;BME280;59286;59.274;17.974;2023-02-13T08:21:41;101988.53;;;3.18;88.38
71476;BME280;59286;59.274;17.974;2023-02-13T08:24:07;101993.28;;;3.21;88.37
71476;BME280;59286;59.274;17.974;2023-02-13T08:26:33;102007.53;;;3.30;87.84
71476;BME280;59286;59.274;17.974;2023-02-13T08:28:59;101995.03;;;3.27;87.16
71476;BME280;59286;59.274;17.974;2023-02-13T08:31:25;101996.41;;;3.30;87.64
71476;BME280;59286;59.274;17.974;2023-02-13T08:33:50;102004.56;;;3.33;87.45
71476;BME280;59286;59.274;17.974;2023-02-13T08:36:15;102017.81;;;3.43;86.92
71476;BME280;59286;59.274;17.974;2023-02-13T08:38:41;102020.97;;;3.45;86.72
71476;BME280;59286;59.274;17.974;2023-02-13T08:41:06;102023.56;;;3.45;86.88
71476;BME280;59286;59.274;17.974;2023-02-13T08:43:31;102024.75;;;3.49;86.71
71476;BME280;59286;59.274;17.974;2023-02-13T08:45:58;102036.25;;;3.60;86.51
71476;BME280;59286;59.274;17.974;2023-02-13T08:48:25;102037.19;;;3.65;86.02
71476;BME280;59286;59.274;17.974;2023-02-13T08:50:50;102034.38;;;3.67;85.88
71476;BME280;59286;59.274;17.974;2023-02-13T08:53:15;102048.66;;;3.76;85.36
71476;BME280;59286;59.274;17.974;2023-02-13T08:55:41;102043.81;;;3.79;85.55
71476;BME280;59286;59.274;17.974;2023-02-13T08:58:06;102039.22;;;3.81;85.15
71476;BME280;59286;59.274;17.974;2023-02-13T09:00:31;102048.75;;;3.87;85.08
71476;BME280;59286;59.274;17.974;2023-02-13T09:03:01;102038.28;;;3.94;84.76
71476;BME280;59286;59.274;17.974;2023-02-13T09:05:27;102044.00;;;4.03;83.95
71476;BME280;59286;59.274;17.974;2023-02-13T09:07:52;102043.78;;;4.04;84.14
71476;BME280;59286;59.274;17.974;2023-02-13T09:10:17;102051.34;;;4.06;84.30
71476;BME280;59286;59.274;17.974;2023-02-13T09:12:43;102044.00;;;4.03;84.18
71476;BME280;59286;59.274;17.974;2023-02-13T09:15:08;102042.84;;;3.99;84.26
71476;BME280;59286;59.274;17.974;2023-02-13T09:17:34;102049.63;;;4.00;83.76
71476;BME280;59286;59.274;17.974;2023-02-13T09:19:59;102051.78;;;4.03;83.77
71476;BME280;59286;59.274;17.974;2023-02-13T09:22:25;102045.16;;;4.07;83.87
71476;BME280;59286;59.274;17.974;2023-02-13T09:24:50;102040.13;;;4.12;83.74
71476;BME280;59286;59.274;17.974;2023-02-13T09:27:15;102038.75;;;4.09;83.50
71476;BME280;59286;59.274;17.974;2023-02-13T09:29:40;102030.75;;;4.11;83.37
71476;BME280;59286;59.274;17.974;2023-02-13T09:32:06;102024.47;;;4.18;83.40
71476;BME280;59286;59.274;17.974;2023-02-13T09:34:31;102040.91;;;4.30;83.22
71476;BME280;59286;59.274;17.974;2023-02-13T09:36:57;102035.00;;;4.41;82.29
71476;BME280;59286;59.274;17.974;2023-02-13T09:39:22;102037.38;;;4.43;82.03
71476;BME280;59286;59.274;17.974;2023-02-13T09:41:49;102040.09;;;4.48;81.88
71476;BME280;59286;59.274;17.974;2023-02-13T09:44:36;102036.75;;;4.59;81.27
71476;BME280;59286;59.274;17.974;2023-02-13T09:47:13;102039.34;;;4.59;81.36
71476;BME280;59286;59.274;17.974;2023-02-13T09:49:43;102035.06;;;4.53;81.74
71476;BME280;59286;59.274;17.974;2023-02-13T09:52:11;102024.75;;;4.46;81.55
71476;BME280;59286;59.274;17.974;2023-02-13T09:54:36;102035.84;;;4.53;82.02
71476;BME280;59286;59.274;17.974;2023-02-13T09:57:35;102025.91;;;4.50;81.42
71476;BME280;59286;59.274;17.974;2023-02-13T10:00:06;102045.09;;;4.49;81.31
71476;BME280;59286;59.274;17.974;2023-02-13T10:08:43;102032.75;;;4.45;81.46
71476;BME280;59286;59.274;17.974;2023-02-13T10:14:25;102041.47;;;4.50;81.18
71476;BME280;59286;59.274;17.974;2023-02-13T10:16:54;102050.78;;;4.58;80.63
71476;BME280;59286;59.274;17.974;2023-02-13T10:19:34;102052.50;;;4.64;81.09
71476;BME280;59286;59.274;17.974;2023-02-13T10:22:06;102052.03;;;4.67;80.83
71476;BME280;59286;59.274;17.974;2023-02-13T10:24:41;102049.09;;;4.63;81.00
71476;BME280;59286;59.274;17.974;2023-02-13T10:27:21;102065.59;;;4.69;80.55
71476;BME280;59286;59.274;17.974;2023-02-13T10:30:05;102060.94;;;4.59;80.69
71476;BME280;59286;59.274;17.974;2023-02-13T10:37:43;102067.19;;;4.70;80.71
71476;BME280;59286;59.274;17.974;2023-02-13T10:40:10;102076.56;;;4.71;80.37
71476;BME280;59286;59.274;17.974;2023-02-13T10:42:44;102076.06;;;4.80;80.16
71476;BME280;59286;59.274;17.974;2023-02-13T10:47:48;102080.97;;;4.88;79.30
71476;BME280;59286;59.274;17.974;2023-02-13T10:58:18;102074.28;;;4.92;78.88
71476;BME280;59286;59.274;17.974;2023-02-13T11:01:01;102073.00;;;5.02;79.24
71476;BME280;59286;59.274;17.974;2023-02-13T11:03:30;102086.31;;;5.05;78.58
71476;BME280;59286;59.274;17.974;2023-02-13T11:05:57;102089.50;;;5.07;78.40
71476;BME280;59286;59.274;17.974;2023-02-13T11:10:51;102090.41;;;5.13;78.04
71476;BME280;59286;59.274;17.974;2023-02-13T11:13:23;102090.19;;;5.14;78.72
71476;BME280;59286;59.274;17.974;2023-02-13T11:16:00;102080.03;;;5.13;78.45
71476;BME280;59286;59.274;17.974;2023-02-13T11:18:28;102087.03;;;5.12;77.76
71476;BME280;59286;59.274;17.974;2023-02-13T11:21:05;102096.38;;;5.02;78.39
71476;BME280;59286;59.274;17.974;2023-02-13T11:23:39;102093.78;;;5.02;78.26
71476;BME280;59286;59.274;17.974;2023-02-13T11:26:10;102108.69;;;5.06;78.77
71476;BME280;59286;59.274;17.974;2023-02-13T11:28:43;102117.41;;;5.12;78.09
71476;BME280;59286;59.274;17.974;2023-02-13T11:31:13;102111.41;;;5.11;77.59
71476;BME280;59286;59.274;17.974;2023-02-13T11:33:39;102105.00;;;5.14;77.72
71476;BME280;59286;59.274;17.974;2023-02-13T11:36:07;102103.75;;;5.16;77.98
71476;BME280;59286;59.274;17.974;2023-02-13T11:38:33;102107.72;;;5.19;77.79
71476;BME280;59286;59.274;17.974;2023-02-13T11:41:05;102102.44;;;5.25;78.10
71476;BME280;59286;59.274;17.974;2023-02-13T11:43:42;102107.09;;;5.35;76.88
71476;BME280;59286;59.274;17.974;2023-02-13T11:46:23;102105.06;;;5.37;77.45
71476;BME280;59286;59.274;17.974;2023-02-13T11:49:00;102099.06;;;5.36;77.10
71476;BME280;59286;59.274;17.974;2023-02-13T11:51:48;102096.25;;;5.38;77.24
71476;BME280;59286;59.274;17.974;2023-02-13T11:54:22;102108.78;;;5.41;76.28
71476;BME280;59286;59.274;17.974;2023-02-13T11:56:51;102120.22;;;5.40;77.16
71476;BME280;59286;59.274;17.974;2023-02-13T11:59:16;102111.63;;;5.39;77.05
71476;BME280;59286;59.274;17.974;2023-02-13T12:01:42;102130.41;;;5.53;76.87
71476;BME280;59286;59.274;17.974;2023-02-13T12:04:17;102128.63;;;5.53;76.26
71476;BME280;59286;59.274;17.974;2023-02-13T12:07:04;102132.72;;;5.61;75.30
71476;BME280;59286;59.274;17.974;2023-02-13T12:09:38;102128.63;;;5.53;76.26
71476;BME280;59286;59.274;17.974;2023-02-13T12:12:04;102134.41;;;5.55;76.55
71476;BME280;59286;59.274;17.974;2023-02-13T12:14:37;102137.00;;;5.55;75.96
71476;BME280;59286;59.274;17.974;2023-02-13T12:17:07;102130.19;;;5.54;75.66
71476;BME280;59286;59.274;17.974;2023-02-13T12:19:41;102125.78;;;5.55;75.49
71476;BME280;59286;59.274;17.974;2023-02-13T12:27:28;102135.53;;;5.71;75.29
71476;BME280;59286;59.274;17.974;2023-02-13T12:32:58;102137.47;;;5.75;74.73
71476;BME280;59286;59.274;17.974;2023-02-13T12:35:34;102145.28;;;5.75;76.05
71476;BME280;59286;59.274;17.974;2023-02-13T12:43:52;102154.66;;;5.76;74.68
71476;BME280;59286;59.274;17.974;2023-02-13T12:46:30;102149.34;;;5.71;75.52
71476;BME280;59286;59.274;17.974;2023-02-13T12:49:05;102151.06;;;5.77;74.53
71476;BME280;59286;59.274;17.974;2023-02-13T12:54:38;102158.28;;;5.75;74.42
71476;BME280;59286;59.274;17.974;2023-02-13T13:12:44;102181.56;;;6.00;74.11
71476;BME280;59286;59.274;17.974;2023-02-13T13:18:13;102196.06;;;6.08;73.40
71476;BME280;59286;59.274;17.974;2023-02-13T13:23:53;102182.00;;;6.09;74.16
71476;BME280;59286;59.274;17.974;2023-02-13T13:26:47;102183.59;;;6.10;73.75
71476;BME280;59286;59.274;17.974;2023-02-13T13:29:20;102183.25;;;6.06;73.37
71476;BME280;59286;59.274;17.974;2023-02-13T13:31:55;102185.66;;;6.08;72.95
71476;BME280;59286;59.274;17.974;2023-02-13T13:34:23;102194.03;;;6.10;73.46
71476;BME280;59286;59.274;17.974;2023-02-13T13:37:02;102202.84;;;6.09;74.06
71476;BME280;59286;59.274;17.974;2023-02-13T13:39:35;102206.00;;;6.11;73.45
71476;BME280;59286;59.274;17.974;2023-02-13T13:42:30;102204.97;;;6.12;73.79
71476;BME280;59286;59.274;17.974;2023-02-13T13:45:07;102203.53;;;6.04;73.83
71476;BME280;59286;59.274;17.974;2023-02-13T13:50:34;102198.09;;;6.06;73.89
71476;BME280;59286;59.274;17.974;2023-02-13T13:53:14;102208.03;;;6.09;74.37
71476;BME280;59286;59.274;17.974;2023-02-13T14:04:03;102209.63;;;5.98;74.21
71476;BME280;59286;59.274;17.974;2023-02-13T14:09:42;102224.31;;;5.93;74.29
71476;BME280;59286;59.274;17.974;2023-02-13T14:14:59;102222.13;;;5.89;74.57
71476;BME280;59286;59.274;17.974;2023-02-13T14:22:54;102216.53;;;5.74;75.17
71476;BME280;59286;59.274;17.974;2023-02-13T14:25:23;102222.19;;;5.71;75.23
71476;BME280;59286;59.274;17.974;2023-02-13T14:27:59;102232.25;;;5.68;74.36
71476;BME280;59286;59.274;17.974;2023-02-13T14:30:30;102224.44;;;5.68;75.44
71476;BME280;59286;59.274;17.974;2023-02-13T14:33:00;102224.66;;;5.66;75.93
71476;BME280;59286;59.274;17.974;2023-02-13T14:35:29;102217.75;;;5.60;75.46
71476;BME280;59286;59.274;17.974;2023-02-13T14:37:58;102218.63;;;5.54;76.05
71476;BME280;59286;59.274;17.974;2023-02-13T14:45:27;102218.38;;;5.44;76.16
71476;BME280;59286;59.274;17.974;2023-02-13T14:47:55;102224.56;;;5.43;75.76
71476;BME280;59286;59.274;17.974;2023-02-13T14:50:28;102226.22;;;5.38;75.96
71476;BME280;59286;59.274;17.974;2023-02-13T14:52:56;102218.38;;;5.26;76.68
71476;BME280;59286;59.274;17.974;2023-02-13T14:55:39;102222.00;;;5.25;76.29
71476;BME280;59286;59.274;17.974;2023-02-13T15:00:52;102229.22;;;5.23;76.68
71476;BME280;59286;59.274;17.974;2023-02-13T15:03:43;102229.28;;;5.17;76.74
71476;BME280;59286;59.274;17.974;2023-02-13T15:06:31;102219.44;;;5.07;77.14
71476;BME280;59286;59.274;17.974;2023-02-13T15:09:00;102224.63;;;5.07;77.10
71476;BME280;59286;59.274;17.974;2023-02-13T15:11:36;102239.06;;;5.03;77.23
71476;BME280;59286;59.274;17.974;2023-02-13T15:14:16;102228.94;;;4.95;77.11